sensor_id;sensor_type;location;lat;lon;timestamp;temperature;humidity
9215;DHT22;4642;51.364;6.788;2024-01-11T00:00:29;-4.30;99.90
9215;DHT22;4642;51.364;6.788;2024-01-11T00:02:54;-4.40;99.90
9215;DHT22;4642;51.364;6.788;2024-01-11T00:05:20;-4.30;99.90
9215;DHT22;4642;51.364;6.788;2024-01-11T00:07:46;-4.40;99.90
9215;DHT22;4642;51.364;6.788;2024-01-11T00:10:12;-4.40;99.90
9215;DHT22;4642;51.364;6.788;2024-01-11T00:12:37;-4.40;99.90
9215;DHT22;4642;51.364;6.788;2024-01-11T00:15:03;-4.30;99.90
9215;DHT22;4642;51.364;6.788;2024-01-11T00:17:29;-4.40;99.90
9215;DHT22;4642;51.364;6.788;2024-01-11T00:19:54;-4.40;99.90
9215;DHT22;4642;51.364;6.788;2024-01-11T00:22:20;-4.40;99.90
9215;DHT22;4642;51.364;6.788;2024-01-11T00:24:45;-4.30;99.90
9215;DHT22;4642;51.364;6.788;2024-01-11T00:27:11;-4.40;99.90
9215;DHT22;4642;51.364;6.788;2024-01-11T00:29:36;-4.40;99.90
9215;DHT22;4642;51.364;6.788;2024-01-11T00:32:02;-4.40;99.90
9215;DHT22;4642;51.364;6.788;2024-01-11T00:34:28;-4.50;99.90
9215;DHT22;4642;51.364;6.788;2024-01-11T00:36:53;-4.50;99.90
9215;DHT22;4642;51.364;6.788;2024-01-11T00:39:19;-4.50;99.90
9215;DHT22;4642;51.364;6.788;2024-01-11T00:41:44;-4.50;99.90
9215;DHT22;4642;51.364;6.788;2024-01-11T00:44:10;-4.50;99.90
9215;DHT22;4642;51.364;6.788;2024-01-11T00:46:36;-4.50;99.90
9215;DHT22;4642;51.364;6.788;2024-01-11T00:49:03;-4.50;99.90
9215;DHT22;4642;51.364;6.788;2024-01-11T00:51:29;-4.50;99.90
9215;DHT22;4642;51.364;6.788;2024-01-11T00:53:54;-4.50;99.90
9215;DHT22;4642;51.364;6.788;2024-01-11T00:56:21;-4.50;99.90
9215;DHT22;4642;51.364;6.788;2024-01-11T00:58:47;-4.50;99.90
9215;DHT22;4642;51.364;6.788;2024-01-11T01:01:13;-4.50;99.90
9215;DHT22;4642;51.364;6.788;2024-01-11T01:03:39;-4.50;99.90
9215;DHT22;4642;51.364;6.788;2024-01-11T01:06:04;-4.50;99.90
9215;DHT22;4642;51.364;6.788;2024-01-11T01:08:30;-4.60;99.90
9215;DHT22;4642;51.364;6.788;2024-01-11T01:10:56;-4.50;99.90
9215;DHT22;4642;51.364;6.788;2024-01-11T01:13:21;-4.50;99.90
9215;DHT22;4642;51.364;6.788;2024-01-11T01:15:47;-4.50;99.90
9215;DHT22;4642;51.364;6.788;2024-01-11T01:18:13;-4.50;99.90
9215;DHT22;4642;51.364;6.788;2024-01-11T01:20:38;-4.50;99.90
9215;DHT22;4642;51.364;6.788;2024-01-11T01:23:04;-4.50;99.90
9215;DHT22;4642;51.364;6.788;2024-01-11T01:25:29;-4.60;99.90
9215;DHT22;4642;51.364;6.788;2024-01-11T01:27:55;-4.60;99.90
9215;DHT22;4642;51.364;6.788;2024-01-11T01:30:22;-4.70;99.90
9215;DHT22;4642;51.364;6.788;2024-01-11T01:32:48;-4.70;99.90
9215;DHT22;4642;51.364;6.788;2024-01-11T01:35:14;-4.70;99.90
9215;DHT22;4642;51.364;6.788;2024-01-11T01:37:39;-4.70;99.90
9215;DHT22;4642;51.364;6.788;2024-01-11T01:40:05;-4.80;99.90
9215;DHT22;4642;51.364;6.788;2024-01-11T01:42:33;-4.70;99.90
9215;DHT22;4642;51.364;6.788;2024-01-11T01:44:58;-4.70;99.90
9215;DHT22;4642;51.364;6.788;2024-01-11T01:47:24;-4.70;99.90
9215;DHT22;4642;51.364;6.788;2024-01-11T01:49:51;-4.80;99.90
9215;DHT22;4642;51.364;6.788;2024-01-11T01:52:17;-4.80;99.90
9215;DHT22;4642;51.364;6.788;2024-01-11T01:54:43;-4.80;99.90
9215;DHT22;4642;51.364;6.788;2024-01-11T01:57:10;-4.80;99.90
9215;DHT22;4642;51.364;6.788;2024-01-11T01:59:37;-4.80;99.90
9215;DHT22;4642;51.364;6.788;2024-01-11T02:02:04;-4.90;99.90
9215;DHT22;4642;51.364;6.788;2024-01-11T02:04:30;-4.90;99.90
9215;DHT22;4642;51.364;6.788;2024-01-11T02:06:57;-4.90;99.90
9215;DHT22;4642;51.364;6.788;2024-01-11T02:09:24;-4.90;99.90
9215;DHT22;4642;51.364;6.788;2024-01-11T02:11:52;-4.90;99.90
9215;DHT22;4642;51.364;6.788;2024-01-11T02:14:18;-4.90;99.90
9215;DHT22;4642;51.364;6.788;2024-01-11T02:16:44;-4.90;99.90
9215;DHT22;4642;51.364;6.788;2024-01-11T02:19:13;-4.90;99.90
9215;DHT22;4642;51.364;6.788;2024-01-11T02:21:43;-4.90;99.90
9215;DHT22;4642;51.364;6.788;2024-01-11T02:24:09;-4.90;99.90
9215;DHT22;4642;51.364;6.788;2024-01-11T02:26:35;-4.90;99.90
9215;DHT22;4642;51.364;6.788;2024-01-11T02:29:01;-4.90;99.90
9215;DHT22;4642;51.364;6.788;2024-01-11T02:31:27;-4.90;99.90
9215;DHT22;4642;51.364;6.788;2024-01-11T02:33:54;-4.90;99.90
9215;DHT22;4642;51.364;6.788;2024-01-11T02:36:20;-4.90;99.90
9215;DHT22;4642;51.364;6.788;2024-01-11T02:38:46;-5.00;99.90
9215;DHT22;4642;51.364;6.788;2024-01-11T02:41:15;-5.10;99.90
9215;DHT22;4642;51.364;6.788;2024-01-11T02:43:48;-5.00;99.90
9215;DHT22;4642;51.364;6.788;2024-01-11T02:46:15;-5.10;99.90
9215;DHT22;4642;51.364;6.788;2024-01-11T02:48:41;-5.10;99.90
9215;DHT22;4642;51.364;6.788;2024-01-11T02:51:06;-5.10;99.90
9215;DHT22;4642;51.364;6.788;2024-01-11T02:53:32;-5.20;99.90
9215;DHT22;4642;51.364;6.788;2024-01-11T02:56:00;-5.20;99.90
9215;DHT22;4642;51.364;6.788;2024-01-11T02:58:26;-5.20;99.90
9215;DHT22;4642;51.364;6.788;2024-01-11T03:00:51;-5.20;99.90
9215;DHT22;4642;51.364;6.788;2024-01-11T03:03:17;-5.20;99.90
9215;DHT22;4642;51.364;6.788;2024-01-11T03:05:42;-5.20;99.90
9215;DHT22;4642;51.364;6.788;2024-01-11T03:08:08;-5.10;99.90
9215;DHT22;4642;51.364;6.788;2024-01-11T03:10:33;-5.10;99.90
9215;DHT22;4642;51.364;6.788;2024-01-11T03:12:59;-5.10;99.90
9215;DHT22;4642;51.364;6.788;2024-01-11T03:15:25;-5.10;99.90
9215;DHT22;4642;51.364;6.788;2024-01-11T03:17:50;-5.10;99.90
9215;DHT22;4642;51.364;6.788;2024-01-11T03:20:16;-5.10;99.90
9215;DHT22;4642;51.364;6.788;2024-01-11T03:22:46;-5.20;99.90
9215;DHT22;4642;51.364;6.788;2024-01-11T03:25:12;-5.20;99.90
9215;DHT22;4642;51.364;6.788;2024-01-11T03:27:37;-5.20;99.90
9215;DHT22;4642;51.364;6.788;2024-01-11T03:30:03;-5.30;99.90
9215;DHT22;4642;51.364;6.788;2024-01-11T03:32:29;-5.30;99.90
9215;DHT22;4642;51.364;6.788;2024-01-11T03:34:55;-5.30;99.90
9215;DHT22;4642;51.364;6.788;2024-01-11T03:37:21;-5.30;99.90
9215;DHT22;4642;51.364;6.788;2024-01-11T03:39:46;-5.30;99.90
9215;DHT22;4642;51.364;6.788;2024-01-11T03:42:12;-5.30;99.90
9215;DHT22;4642;51.364;6.788;2024-01-11T03:44:37;-5.30;99.90
9215;DHT22;4642;51.364;6.788;2024-01-11T03:47:03;-5.30;99.90
9215;DHT22;4642;51.364;6.788;2024-01-11T03:49:29;-5.30;99.90
9215;DHT22;4642;51.364;6.788;2024-01-11T03:51:54;-5.40;99.90
9215;DHT22;4642;51.364;6.788;2024-01-11T03:54:20;-5.40;99.90
9215;DHT22;4642;51.364;6.788;2024-01-11T03:56:45;-5.40;99.90
9215;DHT22;4642;51.364;6.788;2024-01-11T03:59:11;-5.30;99.90
9215;DHT22;4642;51.364;6.788;2024-01-11T04:01:40;-5.40;99.90
9215;DHT22;4642;51.364;6.788;2024-01-11T04:04:06;-5.40;99.90
9215;DHT22;4642;51.364;6.788;2024-01-11T04:06:32;-5.40;99.90
9215;DHT22;4642;51.364;6.788;2024-01-11T04:08:57;-5.40;99.90
9215;DHT22;4642;51.364;6.788;2024-01-11T04:11:23;-5.40;99.90
9215;DHT22;4642;51.364;6.788;2024-01-11T04:13:52;-5.40;99.90
9215;DHT22;4642;51.364;6.788;2024-01-11T04:16:17;-5.40;99.90
9215;DHT22;4642;51.364;6.788;2024-01-11T04:18:43;-5.50;99.90
9215;DHT22;4642;51.364;6.788;2024-01-11T04:21:23;-5.50;99.90
9215;DHT22;4642;51.364;6.788;2024-01-11T04:23:49;-5.50;99.90
9215;DHT22;4642;51.364;6.788;2024-01-11T04:26:15;-5.50;99.90
9215;DHT22;4642;51.364;6.788;2024-01-11T04:28:41;-5.50;99.90
9215;DHT22;4642;51.364;6.788;2024-01-11T04:31:08;-5.50;99.90
9215;DHT22;4642;51.364;6.788;2024-01-11T04:33:33;-5.50;99.90
9215;DHT22;4642;51.364;6.788;2024-01-11T04:35:59;-5.50;99.90
9215;DHT22;4642;51.364;6.788;2024-01-11T04:38:24;-5.50;99.90
9215;DHT22;4642;51.364;6.788;2024-01-11T04:40:50;-5.40;99.90
9215;DHT22;4642;51.364;6.788;2024-01-11T04:43:16;-5.50;99.90
9215;DHT22;4642;51.364;6.788;2024-01-11T04:45:41;-5.40;99.90
9215;DHT22;4642;51.364;6.788;2024-01-11T04:48:07;-5.50;99.90
9215;DHT22;4642;51.364;6.788;2024-01-11T04:50:32;-5.50;99.90
9215;DHT22;4642;51.364;6.788;2024-01-11T04:52:58;-5.40;99.90
9215;DHT22;4642;51.364;6.788;2024-01-11T04:55:23;-5.40;99.90
9215;DHT22;4642;51.364;6.788;2024-01-11T04:57:48;-5.40;99.90
9215;DHT22;4642;51.364;6.788;2024-01-11T05:00:14;-5.40;99.90
9215;DHT22;4642;51.364;6.788;2024-01-11T05:02:40;-5.50;99.90
9215;DHT22;4642;51.364;6.788;2024-01-11T05:05:06;-5.40;99.90
9215;DHT22;4642;51.364;6.788;2024-01-11T05:07:31;-5.40;99.90
9215;DHT22;4642;51.364;6.788;2024-01-11T05:09:57;-5.40;99.90
9215;DHT22;4642;51.364;6.788;2024-01-11T05:12:22;-5.40;99.90
9215;DHT22;4642;51.364;6.788;2024-01-11T05:14:48;-5.50;99.90
9215;DHT22;4642;51.364;6.788;2024-01-11T05:17:14;-5.50;99.90
9215;DHT22;4642;51.364;6.788;2024-01-11T05:19:39;-5.50;99.90
9215;DHT22;4642;51.364;6.788;2024-01-11T05:22:05;-5.50;99.90
9215;DHT22;4642;51.364;6.788;2024-01-11T05:24:30;-5.50;99.90
9215;DHT22;4642;51.364;6.788;2024-01-11T05:26:56;-5.50;99.90
9215;DHT22;4642;51.364;6.788;2024-01-11T05:29:21;-5.50;99.90
9215;DHT22;4642;51.364;6.788;2024-01-11T05:31:47;-5.60;99.90
9215;DHT22;4642;51.364;6.788;2024-01-11T05:34:12;-5.60;99.90
9215;DHT22;4642;51.364;6.788;2024-01-11T05:36:38;-5.70;99.90
9215;DHT22;4642;51.364;6.788;2024-01-11T05:39:04;-5.60;99.90
9215;DHT22;4642;51.364;6.788;2024-01-11T05:41:29;-5.60;99.90
9215;DHT22;4642;51.364;6.788;2024-01-11T05:43:55;-5.60;99.90
9215;DHT22;4642;51.364;6.788;2024-01-11T05:46:20;-5.50;99.90
9215;DHT22;4642;51.364;6.788;2024-01-11T05:48:46;-5.60;99.90
9215;DHT22;4642;51.364;6.788;2024-01-11T05:51:11;-5.50;99.90
9215;DHT22;4642;51.364;6.788;2024-01-11T05:53:37;-5.60;99.90
9215;DHT22;4642;51.364;6.788;2024-01-11T05:56:12;-5.60;99.90
9215;DHT22;4642;51.364;6.788;2024-01-11T05:58:37;-5.60;99.90
9215;DHT22;4642;51.364;6.788;2024-01-11T06:01:04;-5.60;99.90
9215;DHT22;4642;51.364;6.788;2024-01-11T06:03:30;-5.60;99.90
9215;DHT22;4642;51.364;6.788;2024-01-11T06:05:59;-5.60;99.90
9215;DHT22;4642;51.364;6.788;2024-01-11T06:08:25;-5.60;99.90
9215;DHT22;4642;51.364;6.788;2024-01-11T06:10:51;-5.50;99.90
9215;DHT22;4642;51.364;6.788;2024-01-11T06:13:17;-5.50;99.90
9215;DHT22;4642;51.364;6.788;2024-01-11T06:15:43;-5.50;99.90
9215;DHT22;4642;51.364;6.788;2024-01-11T06:18:09;-5.50;99.90
9215;DHT22;4642;51.364;6.788;2024-01-11T06:20:35;-5.50;99.90
9215;DHT22;4642;51.364;6.788;2024-01-11T06:23:00;-5.50;99.90
9215;DHT22;4642;51.364;6.788;2024-01-11T06:25:26;-5.50;99.90
9215;DHT22;4642;51.364;6.788;2024-01-11T06:27:51;-5.50;99.90
9215;DHT22;4642;51.364;6.788;2024-01-11T06:30:17;-5.50;99.90
9215;DHT22;4642;51.364;6.788;2024-01-11T06:32:43;-5.50;99.90
9215;DHT22;4642;51.364;6.788;2024-01-11T06:35:08;-5.60;99.90
9215;DHT22;4642;51.364;6.788;2024-01-11T06:37:34;-5.60;99.90
9215;DHT22;4642;51.364;6.788;2024-01-11T06:40:00;-5.60;99.90
9215;DHT22;4642;51.364;6.788;2024-01-11T06:42:25;-5.60;99.90
9215;DHT22;4642;51.364;6.788;2024-01-11T06:44:51;-5.60;99.90
9215;DHT22;4642;51.364;6.788;2024-01-11T06:47:17;-5.60;99.90
9215;DHT22;4642;51.364;6.788;2024-01-11T06:49:42;-5.60;99.90
9215;DHT22;4642;51.364;6.788;2024-01-11T06:52:08;-5.70;99.90
9215;DHT22;4642;51.364;6.788;2024-01-11T06:54:34;-5.70;99.90
9215;DHT22;4642;51.364;6.788;2024-01-11T06:56:59;-5.70;99.90
9215;DHT22;4642;51.364;6.788;2024-01-11T06:59:25;-5.70;99.90
9215;DHT22;4642;51.364;6.788;2024-01-11T07:01:50;-5.70;99.90
9215;DHT22;4642;51.364;6.788;2024-01-11T07:04:16;-5.70;99.90
9215;DHT22;4642;51.364;6.788;2024-01-11T07:06:42;-5.70;99.90
9215;DHT22;4642;51.364;6.788;2024-01-11T07:09:07;-5.70;99.90
9215;DHT22;4642;51.364;6.788;2024-01-11T07:11:33;-5.70;99.90
9215;DHT22;4642;51.364;6.788;2024-01-11T07:13:59;-5.80;99.90
9215;DHT22;4642;51.364;6.788;2024-01-11T07:16:24;-5.80;99.90
9215;DHT22;4642;51.364;6.788;2024-01-11T07:18:50;-5.80;99.90
9215;DHT22;4642;51.364;6.788;2024-01-11T07:21:22;-5.80;99.90
9215;DHT22;4642;51.364;6.788;2024-01-11T07:24:00;-5.80;99.90
9215;DHT22;4642;51.364;6.788;2024-01-11T07:26:26;-5.80;99.90
9215;DHT22;4642;51.364;6.788;2024-01-11T07:28:52;-5.80;99.90
9215;DHT22;4642;51.364;6.788;2024-01-11T07:31:20;-5.80;99.90
9215;DHT22;4642;51.364;6.788;2024-01-11T07:33:45;-5.70;99.90
9215;DHT22;4642;51.364;6.788;2024-01-11T07:36:11;-5.80;99.90
9215;DHT22;4642;51.364;6.788;2024-01-11T07:38:37;-5.80;99.90
9215;DHT22;4642;51.364;6.788;2024-01-11T07:41:02;-5.80;99.90
9215;DHT22;4642;51.364;6.788;2024-01-11T07:43:28;-5.80;99.90
9215;DHT22;4642;51.364;6.788;2024-01-11T07:45:54;-5.80;99.90
9215;DHT22;4642;51.364;6.788;2024-01-11T07:48:22;-5.70;99.90
9215;DHT22;4642;51.364;6.788;2024-01-11T07:50:48;-5.80;99.90
9215;DHT22;4642;51.364;6.788;2024-01-11T07:53:14;-5.80;99.90
9215;DHT22;4642;51.364;6.788;2024-01-11T07:55:40;-5.80;99.90
9215;DHT22;4642;51.364;6.788;2024-01-11T07:58:05;-5.80;99.90
9215;DHT22;4642;51.364;6.788;2024-01-11T08:00:31;-5.80;99.90
9215;DHT22;4642;51.364;6.788;2024-01-11T08:02:57;-5.80;99.90
9215;DHT22;4642;51.364;6.788;2024-01-11T08:05:22;-5.80;99.90
9215;DHT22;4642;51.364;6.788;2024-01-11T08:07:48;-5.80;99.90
9215;DHT22;4642;51.364;6.788;2024-01-11T08:10:13;-5.80;99.90
9215;DHT22;4642;51.364;6.788;2024-01-11T08:12:39;-5.70;99.90
9215;DHT22;4642;51.364;6.788;2024-01-11T08:15:04;-5.70;99.90
9215;DHT22;4642;51.364;6.788;2024-01-11T08:17:30;-5.70;99.90
9215;DHT22;4642;51.364;6.788;2024-01-11T08:19:56;-5.60;99.90
9215;DHT22;4642;51.364;6.788;2024-01-11T08:22:22;-5.60;99.90
9215;DHT22;4642;51.364;6.788;2024-01-11T08:24:48;-5.60;99.90
9215;DHT22;4642;51.364;6.788;2024-01-11T08:27:13;-5.60;99.90
9215;DHT22;4642;51.364;6.788;2024-01-11T08:29:42;-5.60;99.90
9215;DHT22;4642;51.364;6.788;2024-01-11T08:32:08;-5.60;99.90
9215;DHT22;4642;51.364;6.788;2024-01-11T08:34:33;-5.60;99.90
9215;DHT22;4642;51.364;6.788;2024-01-11T08:36:59;-5.50;99.90
9215;DHT22;4642;51.364;6.788;2024-01-11T08:39:25;-5.50;99.90
9215;DHT22;4642;51.364;6.788;2024-01-11T08:41:50;-5.50;99.90
9215;DHT22;4642;51.364;6.788;2024-01-11T08:44:16;-5.40;99.90
9215;DHT22;4642;51.364;6.788;2024-01-11T08:46:41;-5.40;99.90
9215;DHT22;4642;51.364;6.788;2024-01-11T08:49:09;-5.40;99.90
9215;DHT22;4642;51.364;6.788;2024-01-11T08:51:34;-5.40;99.90
9215;DHT22;4642;51.364;6.788;2024-01-11T08:54:00;-5.30;99.90
9215;DHT22;4642;51.364;6.788;2024-01-11T08:56:25;-5.20;99.90
9215;DHT22;4642;51.364;6.788;2024-01-11T08:58:51;-5.20;99.90
9215;DHT22;4642;51.364;6.788;2024-01-11T09:01:17;-5.10;99.90
9215;DHT22;4642;51.364;6.788;2024-01-11T09:03:43;-5.00;99.90
9215;DHT22;4642;51.364;6.788;2024-01-11T09:06:09;-5.00;99.90
9215;DHT22;4642;51.364;6.788;2024-01-11T09:08:35;-4.90;99.90
9215;DHT22;4642;51.364;6.788;2024-01-11T09:11:01;-4.90;99.90
9215;DHT22;4642;51.364;6.788;2024-01-11T09:13:28;-4.80;99.90
9215;DHT22;4642;51.364;6.788;2024-01-11T09:15:54;-4.80;99.90
9215;DHT22;4642;51.364;6.788;2024-01-11T09:18:20;-4.80;99.90
9215;DHT22;4642;51.364;6.788;2024-01-11T09:20:46;-4.70;99.90
9215;DHT22;4642;51.364;6.788;2024-01-11T09:23:11;-4.60;99.90
9215;DHT22;4642;51.364;6.788;2024-01-11T09:25:37;-4.60;99.90
9215;DHT22;4642;51.364;6.788;2024-01-11T09:28:03;-4.60;99.90
9215;DHT22;4642;51.364;6.788;2024-01-11T09:30:29;-4.50;99.90
9215;DHT22;4642;51.364;6.788;2024-01-11T09:32:54;-4.40;99.90
9215;DHT22;4642;51.364;6.788;2024-01-11T09:35:22;-4.40;99.90
9215;DHT22;4642;51.364;6.788;2024-01-11T09:37:49;-4.30;99.90
9215;DHT22;4642;51.364;6.788;2024-01-11T09:40:14;-4.30;99.90
9215;DHT22;4642;51.364;6.788;2024-01-11T09:42:40;-4.20;99.90
9215;DHT22;4642;51.364;6.788;2024-01-11T09:45:26;-4.10;99.90
9215;DHT22;4642;51.364;6.788;2024-01-11T09:47:51;-4.10;99.90
9215;DHT22;4642;51.364;6.788;2024-01-11T09:50:18;-3.90;99.90
9215;DHT22;4642;51.364;6.788;2024-01-11T09:52:49;-3.90;99.90
9215;DHT22;4642;51.364;6.788;2024-01-11T09:55:15;-3.90;99.90
9215;DHT22;4642;51.364;6.788;2024-01-11T09:57:45;-3.80;99.90
9215;DHT22;4642;51.364;6.788;2024-01-11T10:00:13;-3.80;99.90
9215;DHT22;4642;51.364;6.788;2024-01-11T10:02:41;-3.70;99.90
9215;DHT22;4642;51.364;6.788;2024-01-11T10:05:07;-3.60;99.90
9215;DHT22;4642;51.364;6.788;2024-01-11T10:07:34;-3.60;99.90
9215;DHT22;4642;51.364;6.788;2024-01-11T10:09:59;-3.60;99.90
9215;DHT22;4642;51.364;6.788;2024-01-11T10:12:27;-3.50;99.90
9215;DHT22;4642;51.364;6.788;2024-01-11T10:14:53;-3.50;99.90
9215;DHT22;4642;51.364;6.788;2024-01-11T10:17:19;-3.40;99.90
9215;DHT22;4642;51.364;6.788;2024-01-11T10:19:45;-3.30;99.90
9215;DHT22;4642;51.364;6.788;2024-01-11T10:22:11;-3.20;99.90
9215;DHT22;4642;51.364;6.788;2024-01-11T10:24:42;-3.10;99.90
9215;DHT22;4642;51.364;6.788;2024-01-11T10:27:09;-3.00;99.90
9215;DHT22;4642;51.364;6.788;2024-01-11T10:29:35;-2.80;99.90
9215;DHT22;4642;51.364;6.788;2024-01-11T10:32:04;-2.90;99.90
9215;DHT22;4642;51.364;6.788;2024-01-11T10:34:30;-2.80;99.90
9215;DHT22;4642;51.364;6.788;2024-01-11T10:36:56;-2.70;99.90
9215;DHT22;4642;51.364;6.788;2024-01-11T10:39:26;-2.60;99.90
9215;DHT22;4642;51.364;6.788;2024-01-11T10:41:56;-2.60;99.90
9215;DHT22;4642;51.364;6.788;2024-01-11T10:44:33;-2.60;99.90
9215;DHT22;4642;51.364;6.788;2024-01-11T10:46:59;-2.50;99.90
9215;DHT22;4642;51.364;6.788;2024-01-11T10:49:27;-2.40;99.90
9215;DHT22;4642;51.364;6.788;2024-01-11T10:52:03;-2.30;99.90
9215;DHT22;4642;51.364;6.788;2024-01-11T10:54:31;-2.20;99.90
9215;DHT22;4642;51.364;6.788;2024-01-11T10:57:00;-2.20;99.90
9215;DHT22;4642;51.364;6.788;2024-01-11T10:59:27;-2.10;99.90
9215;DHT22;4642;51.364;6.788;2024-01-11T11:01:57;-2.10;99.90
9215;DHT22;4642;51.364;6.788;2024-01-11T11:04:24;-2.00;99.90
9215;DHT22;4642;51.364;6.788;2024-01-11T11:06:55;-2.00;99.90
9215;DHT22;4642;51.364;6.788;2024-01-11T11:09:23;-1.90;99.90
9215;DHT22;4642;51.364;6.788;2024-01-11T11:11:49;-1.80;99.90
9215;DHT22;4642;51.364;6.788;2024-01-11T11:14:15;-1.80;99.90
9215;DHT22;4642;51.364;6.788;2024-01-11T11:16:41;-1.70;99.90
9215;DHT22;4642;51.364;6.788;2024-01-11T11:19:07;-1.60;99.90
9215;DHT22;4642;51.364;6.788;2024-01-11T11:21:42;-1.60;99.90
9215;DHT22;4642;51.364;6.788;2024-01-11T11:24:08;-1.50;99.90
9215;DHT22;4642;51.364;6.788;2024-01-11T11:26:34;-1.40;99.90
9215;DHT22;4642;51.364;6.788;2024-01-11T11:29:00;-1.30;99.90
9215;DHT22;4642;51.364;6.788;2024-01-11T11:31:43;-1.30;99.90
9215;DHT22;4642;51.364;6.788;2024-01-11T11:34:12;-1.20;99.90
9215;DHT22;4642;51.364;6.788;2024-01-11T11:36:40;-1.10;99.90
9215;DHT22;4642;51.364;6.788;2024-01-11T11:39:05;-1.00;99.90
9215;DHT22;4642;51.364;6.788;2024-01-11T11:41:31;-1.00;99.90
9215;DHT22;4642;51.364;6.788;2024-01-11T11:44:04;-1.00;99.90
9215;DHT22;4642;51.364;6.788;2024-01-11T11:46:30;-0.90;99.90
9215;DHT22;4642;51.364;6.788;2024-01-11T11:48:57;-0.90;99.90
9215;DHT22;4642;51.364;6.788;2024-01-11T11:51:23;-0.90;99.90
9215;DHT22;4642;51.364;6.788;2024-01-11T11:53:51;-0.80;99.90
9215;DHT22;4642;51.364;6.788;2024-01-11T11:56:19;-0.80;99.90
9215;DHT22;4642;51.364;6.788;2024-01-11T11:58:46;-0.70;99.90
9215;DHT22;4642;51.364;6.788;2024-01-11T12:01:16;-0.60;99.90
9215;DHT22;4642;51.364;6.788;2024-01-11T12:03:45;-0.50;99.90
9215;DHT22;4642;51.364;6.788;2024-01-11T12:06:18;-0.60;99.90
9215;DHT22;4642;51.364;6.788;2024-01-11T12:08:45;-0.50;99.90
9215;DHT22;4642;51.364;6.788;2024-01-11T12:11:18;-0.40;99.90
9215;DHT22;4642;51.364;6.788;2024-01-11T12:13:44;-0.40;99.90
9215;DHT22;4642;51.364;6.788;2024-01-11T12:16:11;-0.40;99.90
9215;DHT22;4642;51.364;6.788;2024-01-11T12:18:37;-0.30;99.90
9215;DHT22;4642;51.364;6.788;2024-01-11T12:21:03;-0.30;99.90
9215;DHT22;4642;51.364;6.788;2024-01-11T12:23:28;-0.20;99.90
9215;DHT22;4642;51.364;6.788;2024-01-11T12:25:58;-0.20;99.90
9215;DHT22;4642;51.364;6.788;2024-01-11T12:28:26;-0.10;99.90
9215;DHT22;4642;51.364;6.788;2024-01-11T12:30:51;0.00;99.90
9215;DHT22;4642;51.364;6.788;2024-01-11T12:33:18;0.00;99.90
9215;DHT22;4642;51.364;6.788;2024-01-11T12:35:44;0.00;99.90
9215;DHT22;4642;51.364;6.788;2024-01-11T12:38:10;0.00;99.90
9215;DHT22;4642;51.364;6.788;2024-01-11T12:40:36;0.10;99.90
9215;DHT22;4642;51.364;6.788;2024-01-11T12:43:08;0.10;99.90
9215;DHT22;4642;51.364;6.788;2024-01-11T12:45:36;0.20;99.90
9215;DHT22;4642;51.364;6.788;2024-01-11T12:48:03;0.20;99.90
9215;DHT22;4642;51.364;6.788;2024-01-11T12:50:30;0.20;99.90
9215;DHT22;4642;51.364;6.788;2024-01-11T12:53:15;0.30;99.90
9215;DHT22;4642;51.364;6.788;2024-01-11T12:55:44;0.30;99.90
9215;DHT22;4642;51.364;6.788;2024-01-11T12:58:10;0.30;99.90
9215;DHT22;4642;51.364;6.788;2024-01-11T13:00:37;0.40;99.90
9215;DHT22;4642;51.364;6.788;2024-01-11T13:03:04;0.40;99.90
9215;DHT22;4642;51.364;6.788;2024-01-11T13:05:30;0.40;99.90
9215;DHT22;4642;51.364;6.788;2024-01-11T13:08:01;0.40;99.90
9215;DHT22;4642;51.364;6.788;2024-01-11T13:10:27;0.50;99.90
9215;DHT22;4642;51.364;6.788;2024-01-11T13:12:54;0.50;99.90
9215;DHT22;4642;51.364;6.788;2024-01-11T13:15:20;0.50;99.90
9215;DHT22;4642;51.364;6.788;2024-01-11T13:17:45;0.60;99.90
9215;DHT22;4642;51.364;6.788;2024-01-11T13:20:11;0.60;99.90
9215;DHT22;4642;51.364;6.788;2024-01-11T13:22:37;0.60;99.90
9215;DHT22;4642;51.364;6.788;2024-01-11T13:25:02;0.70;99.90
9215;DHT22;4642;51.364;6.788;2024-01-11T13:27:28;0.70;99.90
9215;DHT22;4642;51.364;6.788;2024-01-11T13:29:53;0.80;99.90
9215;DHT22;4642;51.364;6.788;2024-01-11T13:32:19;0.80;99.90
9215;DHT22;4642;51.364;6.788;2024-01-11T13:34:47;0.80;99.90
9215;DHT22;4642;51.364;6.788;2024-01-11T13:37:13;0.80;99.90
9215;DHT22;4642;51.364;6.788;2024-01-11T13:39:38;0.80;99.90
9215;DHT22;4642;51.364;6.788;2024-01-11T13:42:04;0.80;99.90
9215;DHT22;4642;51.364;6.788;2024-01-11T13:44:34;0.80;99.90
9215;DHT22;4642;51.364;6.788;2024-01-11T13:47:00;0.80;99.90
9215;DHT22;4642;51.364;6.788;2024-01-11T13:49:25;0.80;99.90
9215;DHT22;4642;51.364;6.788;2024-01-11T13:51:51;0.80;99.90
9215;DHT22;4642;51.364;6.788;2024-01-11T13:54:16;0.80;99.90
9215;DHT22;4642;51.364;6.788;2024-01-11T13:56:42;0.80;99.90
9215;DHT22;4642;51.364;6.788;2024-01-11T13:59:08;0.80;99.90
9215;DHT22;4642;51.364;6.788;2024-01-11T14:01:33;0.80;99.90
9215;DHT22;4642;51.364;6.788;2024-01-11T14:03:59;0.90;99.90
9215;DHT22;4642;51.364;6.788;2024-01-11T14:06:25;0.90;99.90
9215;DHT22;4642;51.364;6.788;2024-01-11T14:08:50;0.90;99.90
9215;DHT22;4642;51.364;6.788;2024-01-11T14:11:16;0.90;99.90
9215;DHT22;4642;51.364;6.788;2024-01-11T14:13:41;0.80;99.90
9215;DHT22;4642;51.364;6.788;2024-01-11T14:16:07;0.80;99.90
9215;DHT22;4642;51.364;6.788;2024-01-11T14:18:33;0.80;99.90
9215;DHT22;4642;51.364;6.788;2024-01-11T14:20:58;0.70;99.90
9215;DHT22;4642;51.364;6.788;2024-01-11T14:23:24;0.70;99.90
9215;DHT22;4642;51.364;6.788;2024-01-11T14:25:49;0.70;99.90
9215;DHT22;4642;51.364;6.788;2024-01-11T14:28:15;0.70;99.90
9215;DHT22;4642;51.364;6.788;2024-01-11T14:30:41;0.70;99.90
9215;DHT22;4642;51.364;6.788;2024-01-11T14:33:06;0.60;99.90
9215;DHT22;4642;51.364;6.788;2024-01-11T14:35:32;0.60;99.90
9215;DHT22;4642;51.364;6.788;2024-01-11T14:37:58;0.70;99.90
9215;DHT22;4642;51.364;6.788;2024-01-11T14:40:23;0.60;99.90
9215;DHT22;4642;51.364;6.788;2024-01-11T14:42:49;0.60;99.90
9215;DHT22;4642;51.364;6.788;2024-01-11T14:45:16;0.60;99.90
9215;DHT22;4642;51.364;6.788;2024-01-11T14:47:42;0.60;99.90
9215;DHT22;4642;51.364;6.788;2024-01-11T14:50:08;0.60;99.90
9215;DHT22;4642;51.364;6.788;2024-01-11T14:52:36;0.50;99.90
9215;DHT22;4642;51.364;6.788;2024-01-11T14:55:04;0.50;99.90
9215;DHT22;4642;51.364;6.788;2024-01-11T14:57:30;0.40;99.90
9215;DHT22;4642;51.364;6.788;2024-01-11T14:59:56;0.40;99.90
9215;DHT22;4642;51.364;6.788;2024-01-11T15:02:21;0.40;99.90
9215;DHT22;4642;51.364;6.788;2024-01-11T15:04:47;0.40;99.90
9215;DHT22;4642;51.364;6.788;2024-01-11T15:07:12;0.40;99.90
9215;DHT22;4642;51.364;6.788;2024-01-11T15:09:38;0.60;99.90
9215;DHT22;4642;51.364;6.788;2024-01-11T15:12:04;0.50;99.90
9215;DHT22;4642;51.364;6.788;2024-01-11T15:14:30;0.50;99.90
9215;DHT22;4642;51.364;6.788;2024-01-11T15:16:55;0.50;99.90
9215;DHT22;4642;51.364;6.788;2024-01-11T15:19:21;0.50;99.90
9215;DHT22;4642;51.364;6.788;2024-01-11T15:21:47;0.40;99.90
9215;DHT22;4642;51.364;6.788;2024-01-11T15:24:12;0.40;99.90
9215;DHT22;4642;51.364;6.788;2024-01-11T15:26:38;0.40;99.90
9215;DHT22;4642;51.364;6.788;2024-01-11T15:29:03;0.30;99.90
9215;DHT22;4642;51.364;6.788;2024-01-11T15:31:29;0.30;99.90
9215;DHT22;4642;51.364;6.788;2024-01-11T15:33:54;0.30;99.90
9215;DHT22;4642;51.364;6.788;2024-01-11T15:36:21;0.20;99.90
9215;DHT22;4642;51.364;6.788;2024-01-11T15:38:46;0.20;99.90
9215;DHT22;4642;51.364;6.788;2024-01-11T15:41:14;0.20;99.90
9215;DHT22;4642;51.364;6.788;2024-01-11T15:43:39;0.20;99.90
9215;DHT22;4642;51.364;6.788;2024-01-11T15:46:05;0.10;99.90
9215;DHT22;4642;51.364;6.788;2024-01-11T15:48:30;0.10;99.90
9215;DHT22;4642;51.364;6.788;2024-01-11T15:50:56;0.10;99.90
9215;DHT22;4642;51.364;6.788;2024-01-11T15:53:22;0.00;99.90
9215;DHT22;4642;51.364;6.788;2024-01-11T15:55:48;0.00;99.90
9215;DHT22;4642;51.364;6.788;2024-01-11T15:58:16;-0.10;99.90